< < Back
Terminal Aerodrome Forecast


Current Version              Previous Versions:   1  2  3  4  5  6  7  8  9  

Terminal Aerodrome Forecast

663
FTUS42 KGSP 041123
TAFHKY
TAF
KHKY 041123Z 0412/0512 32006KT P6SM FEW250
     FM041500 04005KT P6SM SCT060
     FM042200 03004KT P6SM BKN060 PROB30 0422/0504 4SM TSRA BKN040CB
     FM050400 05004KT P6SM BKN070 PROB30 0504/0510 4SM TSRA
      BKN040CB=

Latest METAR

519
SAUS70 KWBC 041800
MTRHKY
METAR KHKY 041753Z VRB03KT 10SM CLR 32/18 A3004 RMK AO2 SLP146 T03220178
10322 20211 58008


USA.gov is the U.S. government's official web portal to all federal, state and local government web resources and services.